createdAt,value
2017-08-04T00:02:06.848Z,100526.85
2017-08-04T00:04:41.616Z,100524.31
2017-08-04T00:07:17.318Z,100515.11
2017-08-04T00:09:51.844Z,100517.14
2017-08-04T00:12:26.499Z,100514.45
2017-08-04T00:15:01.224Z,100513.23
2017-08-04T00:17:35.835Z,100514.26
2017-08-04T00:20:10.564Z,100508.21
2017-08-04T00:22:45.296Z,100509.84
2017-08-04T00:25:19.912Z,100506.25
2017-08-04T00:27:54.543Z,100507.70
2017-08-04T00:30:29.071Z,100496.91
2017-08-04T00:33:04.480Z,100500.50
2017-08-04T00:35:39.404Z,100502.53
2017-08-04T00:38:14.187Z,100512.31
2017-08-04T00:40:48.901Z,100510.12
2017-08-04T00:43:23.524Z,100508.05
2017-08-04T00:45:58.155Z,100510.86
2017-08-04T00:48:32.888Z,100505.09
2017-08-04T00:51:07.384Z,100511.24
2017-08-04T00:53:42.976Z,100513.38
2017-08-04T00:56:17.719Z,100505.78
2017-08-04T00:58:52.296Z,100509.04
2017-08-04T01:01:26.857Z,100514.64
2017-08-04T01:04:01.618Z,100514.15
2017-08-04T01:06:36.308Z,100519.50
2017-08-04T01:09:10.916Z,100515.60
2017-08-04T01:11:46.449Z,100518.15
2017-08-04T01:14:21.110Z,100526.23
2017-08-04T01:16:55.800Z,100526.52
2017-08-04T01:19:30.547Z,100524.53
2017-08-04T01:22:05.091Z,100527.60
2017-08-04T01:24:39.772Z,100530.58
2017-08-04T01:27:14.416Z,100530.40
2017-08-04T01:29:49.175Z,100531.94
2017-08-04T01:32:23.315Z,100525.80
2017-08-04T01:34:58.239Z,100520.86
2017-08-04T01:37:32.927Z,100530.14
2017-08-04T01:40:07.563Z,100527.95
2017-08-04T01:42:42.113Z,100530.59
2017-08-04T01:45:17.768Z,100520.86
2017-08-04T01:47:52.268Z,100521.64
2017-08-04T01:53:01.447Z,100525.47
2017-08-04T01:55:36.127Z,100526.49
2017-08-04T01:58:10.880Z,100521.82
2017-08-04T02:00:45.605Z,100512.86
2017-08-04T02:03:19.876Z,100509.05
2017-08-04T02:05:54.572Z,100507.07
2017-08-04T02:08:30.194Z,100513.88
2017-08-04T02:11:05.220Z,100508.78
2017-08-04T02:13:40.819Z,100497.61
2017-08-04T02:16:15.456Z,100502.44
2017-08-04T02:18:50.105Z,100497.53
2017-08-04T02:21:25.854Z,100503.47
2017-08-04T02:24:01.414Z,100503.03
2017-08-04T02:26:35.928Z,100500.98
2017-08-04T02:29:10.466Z,100505.83
2017-08-04T02:31:46.116Z,100504.11
2017-08-04T02:34:20.532Z,100510.27
2017-08-04T02:36:55.183Z,100502.84
2017-08-04T02:39:29.802Z,100505.66
2017-08-04T02:42:04.603Z,100502.08
2017-08-04T02:44:39.340Z,100508.14
2017-08-04T02:47:14.051Z,100504.55
2017-08-04T02:49:48.671Z,100503.88
2017-08-04T02:52:23.048Z,100504.54
2017-08-04T02:54:58.059Z,100510.98
2017-08-04T02:57:32.586Z,100503.76
2017-08-04T03:00:07.130Z,100506.77
2017-08-04T03:02:41.760Z,100503.94
2017-08-04T03:05:16.246Z,100502.76
2017-08-04T03:07:50.984Z,100501.80
2017-08-04T03:10:25.528Z,100505.21
2017-08-04T03:13:00.172Z,100502.23
2017-08-04T03:15:34.842Z,100510.41
2017-08-04T03:18:09.447Z,100513.48
2017-08-04T03:20:44.940Z,100515.78
2017-08-04T03:23:19.456Z,100509.88
2017-08-04T03:25:53.967Z,100508.89
2017-08-04T03:28:28.732Z,100516.20
2017-08-04T03:31:03.371Z,100525.05
2017-08-04T03:33:37.916Z,100518.08
2017-08-04T03:36:12.536Z,100518.50
2017-08-04T03:38:47.097Z,100518.25
2017-08-04T03:41:22.875Z,100512.20
2017-08-04T03:43:57.487Z,100506.67
2017-08-04T03:46:32.254Z,100506.30
2017-08-04T03:49:06.952Z,100514.28
2017-08-04T03:51:41.579Z,100520.77
2017-08-04T03:54:16.307Z,100512.08
2017-08-04T03:56:52.006Z,100514.17
2017-08-04T03:59:26.593Z,100511.97
2017-08-04T04:02:00.928Z,100514.03
2017-08-04T04:04:35.495Z,100513.25
2017-08-04T04:07:10.347Z,100514.17
2017-08-04T04:09:46.003Z,100528.02
2017-08-04T04:12:20.604Z,100530.74
2017-08-04T04:14:55.150Z,100527.76
2017-08-04T04:17:29.997Z,100526.40
2017-08-04T04:20:04.540Z,100537.92
2017-08-04T04:22:39.188Z,100534.70
2017-08-04T04:25:13.873Z,100531.05
2017-08-04T04:27:48.551Z,100529.20
2017-08-04T04:30:23.148Z,100538.37
2017-08-04T04:32:57.684Z,100534.55
2017-08-04T04:35:32.304Z,100542.91
2017-08-04T04:38:06.892Z,100553.14
2017-08-04T04:40:41.524Z,100547.68
2017-08-04T04:43:16.156Z,100538.15
2017-08-04T04:45:50.583Z,100536.38
2017-08-04T04:48:25.155Z,100549.00
2017-08-04T04:50:59.835Z,100558.54
2017-08-04T04:53:34.261Z,100550.68
2017-08-04T04:56:08.661Z,100540.32
2017-08-04T04:58:43.263Z,100530.70
2017-08-04T05:01:17.915Z,100526.78
2017-08-04T05:03:52.581Z,100534.34
2017-08-04T05:06:28.294Z,100528.63
2017-08-04T05:09:03.137Z,100530.41
2017-08-04T05:11:38.884Z,100527.44
2017-08-04T05:14:14.539Z,100530.05
2017-08-04T05:16:49.060Z,100529.55
2017-08-04T05:19:23.567Z,100520.28
2017-08-04T05:21:58.228Z,100531.69
2017-08-04T05:24:32.940Z,100519.00
2017-08-04T05:27:07.651Z,100523.95
2017-08-04T05:29:43.287Z,100516.01
2017-08-04T05:32:17.940Z,100510.99
2017-08-04T05:34:52.697Z,100508.95
2017-08-04T05:37:27.304Z,100526.56
2017-08-04T05:40:02.027Z,100528.28
2017-08-04T05:42:36.320Z,100529.48
2017-08-04T05:45:11.336Z,100525.72
2017-08-04T05:47:45.968Z,100519.00
2017-08-04T05:50:20.483Z,100521.11
2017-08-04T05:52:55.251Z,100519.59
2017-08-04T05:55:29.731Z,100538.51
2017-08-04T05:58:04.421Z,100531.17
2017-08-04T06:00:40.058Z,100524.27
2017-08-04T06:03:14.527Z,100523.16
2017-08-04T06:05:49.222Z,100527.08
2017-08-04T06:08:23.956Z,100521.29
2017-08-04T06:10:58.483Z,100523.74
2017-08-04T06:13:33.224Z,100517.67
2017-08-04T06:16:07.933Z,100515.36
2017-08-04T06:18:42.568Z,100514.35
2017-08-04T06:21:17.061Z,100513.28
2017-08-04T06:23:51.808Z,100515.17
2017-08-04T06:26:27.474Z,100509.23
2017-08-04T06:31:36.795Z,100519.86
2017-08-04T06:34:11.421Z,100506.98
2017-08-04T06:36:46.153Z,100510.16
2017-08-04T06:39:20.787Z,100510.56
2017-08-04T06:41:55.427Z,100519.84
2017-08-04T06:44:31.160Z,100527.91
2017-08-04T06:47:06.915Z,100521.05
2017-08-04T06:49:52.656Z,100525.87
2017-08-04T06:52:39.012Z,100524.66
2017-08-04T06:55:24.323Z,100528.28
2017-08-04T06:57:59.655Z,100534.23
2017-08-04T07:00:34.055Z,100522.55
2017-08-04T07:03:08.965Z,100525.86
2017-08-04T07:05:44.630Z,100516.57
2017-08-04T07:08:19.196Z,100517.93
2017-08-04T07:10:53.842Z,100512.28
2017-08-04T07:13:28.438Z,100515.73
2017-08-04T07:16:04.165Z,100514.14
2017-08-04T07:18:38.903Z,100523.29
2017-08-04T07:21:14.495Z,100517.09
2017-08-04T07:23:49.172Z,100520.21
2017-08-04T07:26:23.878Z,100524.74
2017-08-04T07:28:58.529Z,100520.30
2017-08-04T07:31:33.035Z,100522.25
2017-08-04T07:34:08.567Z,100536.63
2017-08-04T07:36:43.133Z,100537.24
2017-08-04T07:39:17.831Z,100536.24
2017-08-04T07:41:52.432Z,100543.38
2017-08-04T07:44:27.095Z,100542.39
2017-08-04T07:47:01.693Z,100533.78
2017-08-04T07:49:36.084Z,100530.20
2017-08-04T07:52:11.083Z,100529.27
2017-08-04T07:54:45.816Z,100534.78
2017-08-04T07:57:20.514Z,100521.70
2017-08-04T07:59:55.124Z,100526.14
2017-08-04T08:02:30.196Z,100514.17
2017-08-04T08:05:05.336Z,100516.03
2017-08-04T08:07:39.980Z,100525.33
2017-08-04T08:10:14.736Z,100512.95
2017-08-04T08:12:49.336Z,100518.27
2017-08-04T08:15:23.887Z,100516.33
2017-08-04T08:17:58.544Z,100519.13
2017-08-04T08:20:34.239Z,100518.23
2017-08-04T08:23:08.875Z,100521.03
2017-08-04T08:25:43.584Z,100515.45
2017-08-04T08:28:18.297Z,100526.45
2017-08-04T08:30:53.035Z,100525.91
2017-08-04T08:33:27.692Z,100516.26
2017-08-04T08:36:02.354Z,100518.63
2017-08-04T08:38:38.047Z,100512.47
2017-08-04T08:41:12.757Z,100514.28
2017-08-04T08:43:47.433Z,100524.33
2017-08-04T08:46:22.057Z,100524.42
2017-08-04T08:48:56.785Z,100516.08
2017-08-04T08:51:31.487Z,100527.14
2017-08-04T08:54:06.155Z,100510.81
2017-08-04T08:56:40.772Z,100529.20
2017-08-04T08:59:15.280Z,100528.16
2017-08-04T09:01:50.056Z,100517.48
2017-08-04T09:04:24.844Z,100517.97
2017-08-04T09:06:59.536Z,100517.54
2017-08-04T09:09:34.059Z,100517.41
2017-08-04T09:12:08.877Z,100529.31
2017-08-04T09:14:43.303Z,100534.36
2017-08-04T09:17:18.011Z,100521.08
2017-08-04T09:19:52.624Z,100526.67
2017-08-04T09:22:27.298Z,100527.81
2017-08-04T09:25:01.924Z,100535.20
2017-08-04T09:27:36.680Z,100530.55
2017-08-04T09:30:11.480Z,100533.16
2017-08-04T09:32:46.203Z,100530.82
2017-08-04T09:35:20.933Z,100540.41
2017-08-04T09:37:55.570Z,100541.69
2017-08-04T09:40:30.096Z,100544.34
2017-08-04T09:43:04.600Z,100545.60
2017-08-04T09:45:40.370Z,100546.52
2017-08-04T09:48:16.124Z,100554.81
2017-08-04T09:50:51.883Z,100549.83
2017-08-04T09:53:26.479Z,100550.49
2017-08-04T09:56:01.246Z,100546.25
2017-08-04T09:58:35.856Z,100545.22
2017-08-04T10:01:10.392Z,100540.25
2017-08-04T10:03:45.270Z,100530.41
2017-08-04T10:06:19.875Z,100540.87
2017-08-04T10:08:54.531Z,100547.84
2017-08-04T10:11:29.128Z,100549.69
2017-08-04T10:14:03.792Z,100544.98
2017-08-04T10:16:38.542Z,100546.86
2017-08-04T10:19:13.396Z,100541.35
2017-08-04T10:21:48.153Z,100553.95
2017-08-04T10:24:22.584Z,100550.14
2017-08-04T10:26:57.432Z,100547.61
2017-08-04T10:29:32.159Z,100558.92
2017-08-04T10:32:06.816Z,100562.41
2017-08-04T10:34:41.528Z,100564.53
2017-08-04T10:37:16.244Z,100580.09
2017-08-04T10:39:50.732Z,100583.07
2017-08-04T10:42:25.498Z,100574.79
2017-08-04T10:45:00.207Z,100570.38
2017-08-04T10:47:35.910Z,100577.58
2017-08-04T10:50:10.511Z,100568.57
2017-08-04T10:52:45.296Z,100568.31
2017-08-04T10:55:19.895Z,100572.80
2017-08-04T10:57:54.624Z,100564.80
2017-08-04T11:00:29.222Z,100561.64
2017-08-04T11:03:03.959Z,100569.14
2017-08-04T11:05:38.739Z,100556.97
2017-08-04T11:08:13.272Z,100564.58
2017-08-04T11:10:47.871Z,100590.11
2017-08-04T11:13:22.595Z,100579.79
2017-08-04T11:15:57.239Z,100599.16
2017-08-04T11:18:32.023Z,100607.63
2017-08-04T11:21:06.559Z,100603.59
2017-08-04T11:23:41.282Z,100608.30
2017-08-04T11:26:15.848Z,100601.81
2017-08-04T11:28:50.448Z,100603.75
2017-08-04T11:31:25.239Z,100615.69
2017-08-04T11:33:59.995Z,100603.27
2017-08-04T11:36:34.709Z,100592.45
2017-08-04T11:39:09.255Z,100593.11
2017-08-04T11:41:43.959Z,100578.30
2017-08-04T11:44:18.587Z,100594.13
2017-08-04T11:46:54.343Z,100596.54
2017-08-04T11:49:29.076Z,100596.69
2017-08-04T11:52:04.726Z,100585.38
2017-08-04T11:54:39.357Z,100590.63
2017-08-04T11:57:14.036Z,100593.81
2017-08-04T11:59:48.802Z,100585.45
2017-08-04T12:02:23.543Z,100586.98
2017-08-04T12:04:58.176Z,100593.14
2017-08-04T12:07:33.922Z,100592.00
2017-08-04T12:10:08.543Z,100584.36
2017-08-04T12:12:43.060Z,100589.71
2017-08-04T12:15:17.707Z,100585.39
2017-08-04T12:17:52.311Z,100595.14
2017-08-04T12:20:26.968Z,100596.72
2017-08-04T12:23:01.616Z,100590.53
2017-08-04T12:25:36.195Z,100583.77
2017-08-04T12:28:11.958Z,100586.88
2017-08-04T12:30:46.485Z,100583.03
2017-08-04T12:33:21.226Z,100576.05
2017-08-04T12:35:55.984Z,100572.52
2017-08-04T12:38:30.696Z,100575.94
2017-08-04T12:41:05.239Z,100580.06
2017-08-04T12:43:39.819Z,100571.39
2017-08-04T12:46:15.141Z,100565.96
2017-08-04T12:48:50.020Z,100565.52
2017-08-04T12:51:24.708Z,100567.67
2017-08-04T12:54:00.388Z,100579.17
2017-08-04T12:56:34.911Z,100578.91
2017-08-04T12:59:09.499Z,100584.75
2017-08-04T13:01:44.061Z,100592.77
2017-08-04T13:04:19.883Z,100586.58
2017-08-04T13:06:55.604Z,100588.94
2017-08-04T13:09:29.987Z,100585.11
2017-08-04T13:12:04.803Z,100594.58
2017-08-04T13:14:39.425Z,100594.70
2017-08-04T13:17:13.960Z,100597.47
2017-08-04T13:19:48.527Z,100589.39
2017-08-04T13:22:23.116Z,100589.14
2017-08-04T13:24:57.732Z,100583.38
2017-08-04T13:27:32.438Z,100583.80
2017-08-04T13:30:06.987Z,100582.83
2017-08-04T13:32:41.531Z,100591.44
2017-08-04T13:35:16.231Z,100581.64
2017-08-04T13:37:50.694Z,100593.13
2017-08-04T13:40:25.578Z,100597.45
2017-08-04T13:43:00.515Z,100609.49
2017-08-04T13:45:35.055Z,100613.63
2017-08-04T13:48:09.674Z,100624.25
2017-08-04T13:50:44.228Z,100628.29
2017-08-04T13:53:18.774Z,100627.16
2017-08-04T13:55:53.568Z,100638.52
2017-08-04T13:58:28.264Z,100623.27
2017-08-04T14:01:03.791Z,100628.76
2017-08-04T14:03:38.593Z,100625.20
2017-08-04T14:06:13.156Z,100638.70
2017-08-04T14:08:47.753Z,100639.45
2017-08-04T14:11:23.459Z,100629.91
2017-08-04T14:13:59.283Z,100620.84
2017-08-04T14:16:33.995Z,100639.58
2017-08-04T14:19:08.673Z,100631.60
2017-08-04T14:21:44.306Z,100640.44
2017-08-04T14:24:18.919Z,100636.59
2017-08-04T14:26:53.693Z,100636.62
2017-08-04T14:29:28.995Z,100632.75
2017-08-04T14:32:03.636Z,100641.48
2017-08-04T14:34:38.263Z,100642.22
2017-08-04T14:37:13.865Z,100636.34
2017-08-04T14:39:48.402Z,100623.20
2017-08-04T14:42:23.168Z,100647.95
2017-08-04T14:44:57.780Z,100635.91
2017-08-04T14:47:32.520Z,100648.44
2017-08-04T14:50:07.216Z,100644.91
2017-08-04T14:52:41.908Z,100653.61
2017-08-04T14:55:16.462Z,100650.09
2017-08-04T14:57:52.149Z,100648.05
2017-08-04T15:00:26.895Z,100653.31
2017-08-04T15:03:01.527Z,100644.33
2017-08-04T15:05:36.187Z,100653.39
2017-08-04T15:08:10.735Z,100645.07
2017-08-04T15:10:45.364Z,100649.28
2017-08-04T15:13:20.088Z,100648.03
2017-08-04T15:15:54.814Z,100646.02
2017-08-04T15:18:29.447Z,100647.72
2017-08-04T15:21:04.143Z,100645.86
2017-08-04T15:23:38.795Z,100638.92
2017-08-04T15:26:13.438Z,100634.37
2017-08-04T15:28:48.088Z,100637.06
2017-08-04T15:31:22.438Z,100641.00
2017-08-04T15:33:57.215Z,100636.88
2017-08-04T15:36:31.924Z,100638.08
2017-08-04T15:39:06.571Z,100633.85
2017-08-04T15:41:41.228Z,100646.06
2017-08-04T15:44:15.984Z,100637.98
2017-08-04T15:46:50.690Z,100645.77
2017-08-04T15:49:26.442Z,100638.16
2017-08-04T15:52:01.156Z,100645.11
2017-08-04T15:54:35.692Z,100644.90
2017-08-04T15:57:11.440Z,100638.20
2017-08-04T15:59:45.951Z,100642.44
2017-08-04T16:02:20.638Z,100641.89
2017-08-04T16:04:55.301Z,100640.95
2017-08-04T16:07:30.959Z,100647.71
2017-08-04T16:10:05.737Z,100645.95
2017-08-04T16:12:40.429Z,100641.30
2017-08-04T16:15:15.068Z,100643.44
2017-08-04T16:17:49.675Z,100635.91
2017-08-04T16:20:24.243Z,100637.27
2017-08-04T16:22:58.935Z,100644.76
2017-08-04T16:25:33.503Z,100641.95
2017-08-04T16:28:08.231Z,100643.65
2017-08-04T16:30:43.120Z,100649.12
2017-08-04T16:33:17.745Z,100655.64
2017-08-04T16:35:52.445Z,100652.84
2017-08-04T16:38:27.039Z,100650.39
2017-08-04T16:41:01.592Z,100650.34
2017-08-04T16:43:36.338Z,100659.62
2017-08-04T16:46:12.079Z,100661.38
2017-08-04T16:48:46.788Z,100669.62
2017-08-04T16:51:21.500Z,100661.79
2017-08-04T16:53:55.986Z,100666.98
2017-08-04T16:56:30.695Z,100666.38
2017-08-04T16:59:05.439Z,100671.55
2017-08-04T17:01:39.968Z,100668.66
2017-08-04T17:04:14.628Z,100671.33
2017-08-04T17:06:49.220Z,100685.04
2017-08-04T17:09:23.857Z,100688.21
2017-08-04T17:11:59.517Z,100685.83
2017-08-04T17:14:34.204Z,100684.81
2017-08-04T17:17:08.699Z,100690.36
2017-08-04T17:19:43.347Z,100691.41
2017-08-04T17:22:18.116Z,100690.44
2017-08-04T17:24:52.728Z,100695.06
2017-08-04T17:27:27.540Z,100698.00
2017-08-04T17:30:02.055Z,100700.00
2017-08-04T17:32:36.643Z,100701.59
2017-08-04T17:35:11.217Z,100699.15
2017-08-04T17:37:45.731Z,100704.44
2017-08-04T17:40:20.374Z,100702.39
2017-08-04T17:42:54.944Z,100700.23
2017-08-04T17:45:29.537Z,100702.27
2017-08-04T17:48:04.268Z,100704.59
2017-08-04T17:50:39.068Z,100714.20
2017-08-04T17:53:13.699Z,100704.78
2017-08-04T17:55:48.215Z,100712.00
2017-08-04T17:58:41.132Z,100706.28
2017-08-04T18:01:15.623Z,100714.18
2017-08-04T18:03:50.367Z,100715.41
2017-08-04T18:06:24.983Z,100711.53
2017-08-04T18:08:59.667Z,100710.83
2017-08-04T18:11:34.429Z,100713.26
2017-08-04T18:14:09.135Z,100716.34
2017-08-04T18:16:43.781Z,100714.17
2017-08-04T18:19:18.384Z,100716.25
2017-08-04T18:21:52.939Z,100709.03
2017-08-04T18:24:27.710Z,100716.22
2017-08-04T18:27:02.362Z,100721.14
2017-08-04T18:29:36.999Z,100725.58
2017-08-04T18:32:11.557Z,100726.88
2017-08-04T18:34:47.331Z,100728.77
2017-08-04T18:37:21.984Z,100733.25
2017-08-04T18:39:56.703Z,100731.87
2017-08-04T18:42:31.356Z,100734.55
2017-08-04T18:45:06.059Z,100744.69
2017-08-04T18:47:40.807Z,100737.23
2017-08-04T18:50:15.423Z,100737.89
2017-08-04T18:52:50.170Z,100738.36
2017-08-04T18:55:25.832Z,100748.34
2017-08-04T18:58:00.469Z,100752.52
2017-08-04T19:00:35.155Z,100754.05
2017-08-04T19:03:09.658Z,100760.52
2017-08-04T19:05:45.819Z,100763.72
2017-08-04T19:08:21.028Z,100766.70
2017-08-04T19:10:55.754Z,100764.48
2017-08-04T19:13:30.378Z,100766.70
2017-08-04T19:16:05.816Z,100778.52
2017-08-04T19:18:40.535Z,100777.34
2017-08-04T19:21:15.149Z,100777.80
2017-08-04T19:23:49.710Z,100778.23
2017-08-04T19:26:24.250Z,100779.30
2017-08-04T19:28:58.975Z,100780.30
2017-08-04T19:31:33.609Z,100783.11
2017-08-04T19:34:08.307Z,100777.62
2017-08-04T19:36:42.990Z,100785.53
2017-08-04T19:39:17.652Z,100786.88
2017-08-04T19:41:53.294Z,100791.99
2017-08-04T19:44:29.020Z,100792.36
2017-08-04T19:47:03.647Z,100793.20
2017-08-04T19:49:38.312Z,100796.25
2017-08-04T19:52:13.112Z,100793.02
2017-08-04T19:54:47.793Z,100788.84
2017-08-04T19:57:22.562Z,100787.48
2017-08-04T19:59:57.219Z,100780.73
2017-08-04T20:02:31.740Z,100778.04
2017-08-04T20:05:06.475Z,100779.56
2017-08-04T20:07:41.136Z,100772.37
2017-08-04T20:10:15.774Z,100770.52
2017-08-04T20:12:50.539Z,100770.42
2017-08-04T20:15:25.268Z,100776.34
2017-08-04T20:17:59.977Z,100777.31
2017-08-04T20:20:34.630Z,100781.03
2017-08-04T20:23:09.228Z,100780.97
2017-08-04T20:25:44.053Z,100788.80
2017-08-04T20:28:18.707Z,100793.44
2017-08-04T20:30:53.417Z,100799.73
2017-08-04T20:33:28.293Z,100803.67
2017-08-04T20:36:03.023Z,100795.84
2017-08-04T20:38:37.824Z,100801.06
2017-08-04T20:41:12.575Z,100802.77
2017-08-04T20:43:47.208Z,100804.67
2017-08-04T20:46:21.813Z,100809.20
2017-08-04T20:48:56.438Z,100805.03
2017-08-04T20:51:30.968Z,100809.84
2017-08-04T20:54:05.578Z,100815.33
2017-08-04T20:56:40.272Z,100819.89
2017-08-04T20:59:14.903Z,100816.30
2017-08-04T21:01:49.533Z,100811.25
2017-08-04T21:04:24.049Z,100807.84
2017-08-04T21:06:58.744Z,100811.27
2017-08-04T21:09:33.422Z,100818.53
2017-08-04T21:12:09.042Z,100821.02
2017-08-04T21:14:43.670Z,100827.64
2017-08-04T21:17:18.356Z,100829.09
2017-08-04T21:19:53.131Z,100825.92
2017-08-04T21:22:27.730Z,100826.52
2017-08-04T21:25:02.331Z,100832.25
2017-08-04T21:27:37.069Z,100838.81
2017-08-04T21:30:11.831Z,100840.84
2017-08-04T21:32:46.516Z,100848.45
2017-08-04T21:35:21.259Z,100847.92
2017-08-04T21:37:55.968Z,100850.64
2017-08-04T21:40:30.506Z,100840.66
2017-08-04T21:43:06.152Z,100840.48
2017-08-04T21:45:41.919Z,100833.41
2017-08-04T21:48:16.566Z,100835.44
2017-08-04T21:50:51.088Z,100836.28
2017-08-04T21:53:25.719Z,100835.91
2017-08-04T21:56:00.438Z,100837.36
2017-08-04T21:58:35.125Z,100836.06
2017-08-04T22:01:09.775Z,100852.78
2017-08-04T22:03:44.288Z,100850.14
2017-08-04T22:06:18.975Z,100845.03
2017-08-04T22:08:54.678Z,100845.88
2017-08-04T22:11:30.312Z,100843.14
2017-08-04T22:14:05.043Z,100842.09
2017-08-04T22:16:40.884Z,100838.25
2017-08-04T22:19:15.528Z,100839.00
2017-08-04T22:21:50.093Z,100844.34
2017-08-04T22:24:24.757Z,100837.78
2017-08-04T22:26:59.420Z,100839.03
2017-08-04T22:29:33.920Z,100843.03
2017-08-04T22:32:08.565Z,100837.49
2017-08-04T22:34:43.174Z,100832.73
2017-08-04T22:37:18.790Z,100836.88
2017-08-04T22:39:53.202Z,100830.73
2017-08-04T22:42:28.140Z,100826.23
2017-08-04T22:45:02.836Z,100825.05
2017-08-04T22:47:37.575Z,100827.25
2017-08-04T22:50:12.167Z,100829.11
2017-08-04T22:52:46.860Z,100844.50
2017-08-04T22:55:21.472Z,100841.52
2017-08-04T22:57:57.130Z,100844.11
2017-08-04T23:00:32.675Z,100836.38
2017-08-04T23:03:07.356Z,100838.48
2017-08-04T23:05:42.003Z,100846.36
2017-08-04T23:08:16.711Z,100839.50
2017-08-04T23:10:51.339Z,100843.71
2017-08-04T23:13:26.087Z,100836.74
2017-08-04T23:16:00.741Z,100842.45
2017-08-04T23:18:35.453Z,100836.47
2017-08-04T23:21:10.151Z,100842.01
2017-08-04T23:23:44.813Z,100845.17
2017-08-04T23:26:19.592Z,100852.23
2017-08-04T23:28:54.215Z,100855.36
2017-08-04T23:31:28.842Z,100851.31
2017-08-04T23:34:03.397Z,100849.50
2017-08-04T23:36:38.001Z,100839.88
2017-08-04T23:39:12.557Z,100836.54
2017-08-04T23:41:47.359Z,100830.87
2017-08-04T23:44:22.183Z,100831.66
2017-08-04T23:46:56.917Z,100834.20
2017-08-04T23:49:31.540Z,100836.73
2017-08-04T23:52:06.040Z,100842.09
2017-08-04T23:54:40.622Z,100841.25
2017-08-04T23:57:15.909Z,100843.52
2017-08-04T23:59:50.857Z,100841.03
